Time;durP1;ratioP1;P1;durP2;ratioP2;P2;SDS_P1;SDS_P2;PMS_P1;PMS_P2;Temp;Humidity;BMP_temperature;BMP_pressure;BME280_temperature;BME280_humidity;BME280_pressure;Samples;Min_cycle;Max_cycle;Signal;HPM_P1;HPM_P2
2021/12/27 00:00:19;;;;;;;27.67;11.03;;;;;;;13.90;41.36;100263.09;5112892;28;20102;-68
2021/12/27 00:02:47;;;;;;;23.57;10.40;;;;;;;13.96;40.80;100266.41;5112526;28;20490;-68
2021/12/27 00:05:13;;;;;;;23.53;10.93;;;;;;;13.90;41.22;100263.09;5113082;28;20115;-68
2021/12/27 00:07:38;;;;;;;29.43;11.67;;;;;;;14.35;40.16;100256.31;5110264;28;20169;-67
2021/12/27 00:10:05;;;;;;;23.83;10.90;;;;;;;14.79;39.44;100257.47;5129488;28;20031;-68
2021/12/27 00:12:30;;;;;;;24.17;11.57;;;;;;;13.21;42.36;100257.34;5113081;28;20023;-67
2021/12/27 00:14:55;;;;;;;29.67;10.47;;;;;;;13.62;41.91;100268.38;5112883;28;20034;-68
2021/12/27 00:17:21;;;;;;;34.40;11.37;;;;;;;13.17;42.99;100255.72;5111769;28;20027;-67
2021/12/27 00:19:47;;;;;;;27.40;11.13;;;;;;;13.42;42.11;100260.25;5112702;28;20106;-67
2021/12/27 00:22:12;;;;;;;26.00;11.97;;;;;;;13.38;41.93;100251.59;5111635;28;20027;-67
2021/12/27 00:24:38;;;;;;;24.97;11.07;;;;;;;13.91;41.14;100242.94;5124758;28;20076;-67
2021/12/27 00:27:03;;;;;;;25.60;10.90;;;;;;;13.08;42.99;100246.38;5130725;28;20505;-68
2021/12/27 00:29:29;;;;;;;35.00;11.70;;;;;;;14.59;40.27;100230.09;5118839;28;20023;-67
2021/12/27 00:31:54;;;;;;;22.77;10.23;;;;;;;13.94;40.48;100231.47;5094268;28;20032;-67
2021/12/27 00:34:19;;;;;;;28.50;11.77;;;;;;;14.35;40.60;100226.56;5115462;27;20027;-67
2021/12/27 00:36:45;;;;;;;31.60;12.27;;;;;;;14.13;40.58;100234.34;5114886;27;20019;-67
2021/12/27 00:39:10;;;;;;;28.17;10.57;;;;;;;14.50;40.04;100226.00;5134174;27;20031;-67
2021/12/27 00:41:36;;;;;;;24.83;11.27;;;;;;;13.84;41.60;100228.28;5135085;27;20053;-67
2021/12/27 00:44:01;;;;;;;23.50;10.30;;;;;;;13.37;43.17;100232.38;5114494;27;20023;-67
2021/12/27 00:46:27;;;;;;;31.90;12.50;;;;;;;14.38;40.87;100216.81;5116501;27;20574;-68
2021/12/27 00:48:52;;;;;;;28.07;10.83;;;;;;;14.30;40.51;100218.84;5131312;27;20045;-67
2021/12/27 00:51:18;;;;;;;26.67;11.33;;;;;;;14.19;41.52;100205.19;5134137;27;20054;-68
2021/12/27 00:53:43;;;;;;;35.53;12.47;;;;;;;14.13;40.84;100200.16;5116086;27;20043;-67
2021/12/27 00:56:09;;;;;;;22.80;10.80;;;;;;;14.59;40.39;100198.53;5134444;27;20057;-68
2021/12/27 00:58:34;;;;;;;25.97;11.03;;;;;;;14.99;39.26;100191.78;5107887;27;20022;-67
2021/12/27 01:01:00;;;;;;;28.63;11.60;;;;;;;14.33;41.07;100195.06;5134149;27;20496;-67
2021/12/27 01:03:26;;;;;;;26.23;11.50;;;;;;;14.65;40.23;100198.31;5115690;27;20031;-67
2021/12/27 01:05:51;;;;;;;28.90;11.60;;;;;;;15.17;39.35;100184.09;5115574;27;20033;-67
2021/12/27 01:08:17;;;;;;;29.77;11.07;;;;;;;14.93;39.53;100186.75;5131885;27;20027;-68
2021/12/27 01:13:36;;;;;;;27.83;11.23;;;;;;;14.90;39.26;100194.78;5121568;27;20027;-67
2021/12/27 01:16:12;;;;;;;21.17;10.23;;;;;;;14.23;40.74;100193.66;5115146;27;20058;-67
2021/12/27 01:18:42;;;;;;;30.33;11.30;;;;;;;14.55;40.89;100192.50;5123518;27;20115;-67
2021/12/27 01:21:09;;;;;;;25.43;11.37;;;;;;;14.26;41.53;100196.22;5115210;27;20088;-67
2021/12/27 01:23:34;;;;;;;24.40;9.97;;;;;;;14.29;41.43;100185.56;5133670;27;20035;-67
2021/12/27 01:26:00;;;;;;;24.03;10.50;;;;;;;14.32;41.07;100174.94;5133481;27;20385;-67
2021/12/27 01:28:26;;;;;;;21.87;10.57;;;;;;;14.89;39.89;100179.88;5113975;27;20030;-67
2021/12/27 01:30:51;;;;;;;23.47;10.60;;;;;;;13.93;42.13;100174.56;5111887;27;20023;-67
2021/12/27 01:33:20;;;;;;;19.93;10.03;;;;;;;13.74;43.26;100178.69;5122455;27;20420;-67
2021/12/27 01:35:46;;;;;;;21.93;10.70;;;;;;;14.73;40.10;100180.47;5115829;27;20031;-67
2021/12/27 01:38:13;;;;;;;22.37;10.37;;;;;;;14.61;40.67;100174.81;5132618;27;20790;-67
2021/12/27 01:40:41;;;;;;;26.93;11.43;;;;;;;14.64;40.45;100172.94;5115002;27;20039;-67
2021/12/27 01:43:13;;;;;;;23.80;9.67;;;;;;;14.48;40.42;100175.25;5110680;27;20027;-67
2021/12/27 01:45:40;;;;;;;18.67;9.63;;;;;;;14.66;41.12;100171.13;5114947;27;20035;-67
2021/12/27 01:48:07;;;;;;;23.77;9.83;;;;;;;14.70;40.53;100170.09;5113084;27;20075;-67
2021/12/27 01:50:37;;;;;;;28.07;11.27;;;;;;;13.90;42.15;100170.28;5115419;27;20159;-67
2021/12/27 01:53:03;;;;;;;21.40;10.63;;;;;;;14.49;40.76;100161.16;5113849;27;20011;-67
2021/12/27 01:55:29;;;;;;;27.93;11.90;;;;;;;15.05;39.83;100170.47;5132988;27;20066;-67
2021/12/27 01:57:54;;;;;;;25.30;11.33;;;;;;;15.04;39.96;100166.16;5124465;27;20059;-67
2021/12/27 02:00:20;;;;;;;19.80;9.67;;;;;;;14.89;40.40;100159.72;5133129;27;20478;-67
2021/12/27 02:02:46;;;;;;;23.80;9.90;;;;;;;15.42;38.75;100160.28;5114779;27;20080;-67
2021/12/27 02:05:13;;;;;;;21.77;9.87;;;;;;;15.60;38.82;100167.41;5114357;27;20042;-67
2021/12/27 02:07:40;;;;;;;24.43;11.17;;;;;;;15.95;38.00;100164.25;5131434;27;20031;-67
2021/12/27 02:10:07;;;;;;;20.83;9.73;;;;;;;15.17;39.77;100168.31;5114182;27;20023;-67
2021/12/27 02:12:33;;;;;;;24.43;9.40;;;;;;;14.54;40.33;100164.50;5114765;27;20023;-67
2021/12/27 02:14:59;;;;;;;23.10;9.63;;;;;;;14.81;40.85;100164.41;5113858;27;20027;-67
2021/12/27 02:17:25;;;;;;;21.57;9.40;;;;;;;14.12;41.68;100161.66;5108769;27;20019;-67
2021/12/27 02:19:52;;;;;;;20.27;9.50;;;;;;;14.50;41.67;100164.69;5114078;27;20389;-67
2021/12/27 02:22:17;;;;;;;19.80;8.83;;;;;;;15.37;39.63;100159.59;5113596;27;20467;-67
2021/12/27 02:24:43;;;;;;;19.17;9.43;;;;;;;13.90;42.38;100168.53;5106819;28;20051;-67
2021/12/27 02:27:12;;;;;;;20.77;10.60;;;;;;;14.18;41.87;100161.44;5103879;27;20099;-67
2021/12/27 02:29:38;;;;;;;19.57;8.87;;;;;;;15.35;40.11;100159.66;5132127;27;20387;-67
2021/12/27 02:32:03;;;;;;;20.50;9.67;;;;;;;15.59;39.57;100162.19;5114028;27;20015;-67
2021/12/27 02:34:29;;;;;;;20.03;10.13;;;;;;;15.16;40.68;100158.69;5113306;27;20380;-67
2021/12/27 02:36:54;;;;;;;25.70;10.10;;;;;;;15.35;39.41;100167.56;5113518;27;20054;-67
2021/12/27 02:39:20;;;;;;;24.67;10.60;;;;;;;15.59;39.15;100159.56;5113759;27;20521;-67
2021/12/27 02:41:45;;;;;;;21.50;9.93;;;;;;;14.90;40.79;100163.19;5110024;28;20019;-67
2021/12/27 02:44:10;;;;;;;22.23;9.70;;;;;;;15.77;39.11;100157.94;5102490;27;20019;-67
2021/12/27 02:46:36;;;;;;;21.63;9.53;;;;;;;14.58;40.86;100160.00;5132229;27;20042;-67
2021/12/27 02:49:02;;;;;;;24.27;10.70;;;;;;;15.41;39.39;100156.78;5112383;27;20034;-67
2021/12/27 02:51:27;;;;;;;27.07;10.70;;;;;;;15.34;39.52;100155.31;5092954;28;20056;-67
2021/12/27 02:53:52;;;;;;;27.07;11.67;;;;;;;15.52;39.71;100150.22;5116378;27;20039;-67
2021/12/27 02:56:18;;;;;;;24.63;10.83;;;;;;;14.68;41.82;100150.00;5113121;28;20030;-67
2021/12/27 02:58:45;;;;;;;31.47;12.23;;;;;;;15.44;40.46;100151.38;5113006;27;20023;-67
2021/12/27 03:01:18;;;;;;;24.87;11.00;;;;;;;14.95;40.96;100152.47;5111859;27;20474;-67
2021/12/27 03:03:44;;;;;;;28.30;11.87;;;;;;;14.08;42.71;100153.00;5098243;27;20054;-67
2021/12/27 03:06:10;;;;;;;35.30;12.13;;;;;;;14.91;41.50;100136.81;5128413;27;20023;-67
2021/12/27 03:08:37;;;;;;;24.80;11.20;;;;;;;14.23;42.08;100141.09;5132061;27;20031;-67
2021/12/27 03:11:04;;;;;;;34.10;12.10;;;;;;;14.36;42.16;100133.63;5112478;27;20076;-68
2021/12/27 03:13:33;;;;;;;34.47;11.70;;;;;;;14.67;41.64;100133.38;5131231;27;20513;-67
2021/12/27 03:16:02;;;;;;;32.07;12.73;;;;;;;14.76;41.27;100135.63;5118677;27;20023;-67
2021/12/27 03:18:28;;;;;;;32.80;13.37;;;;;;;14.81;41.89;100131.97;5112809;27;20051;-67
2021/12/27 03:20:54;;;;;;;28.87;12.67;;;;;;;14.84;40.98;100131.88;5130536;27;20043;-67
2021/12/27 03:23:21;;;;;;;30.57;12.50;;;;;;;15.28;40.46;100121.34;5120668;27;20411;-67
2021/12/27 03:25:46;;;;;;;29.97;11.73;;;;;;;15.16;40.46;100124.47;5112070;27;20046;-68
2021/12/27 03:28:12;;;;;;;31.77;13.00;;;;;;;15.35;40.47;100120.16;5112661;27;20027;-67
2021/12/27 03:30:39;;;;;;;26.67;11.47;;;;;;;14.55;41.74;100118.03;5129932;27;20098;-67
2021/12/27 03:33:10;;;;;;;30.03;11.73;;;;;;;15.19;41.01;100109.38;5111842;28;20027;-66
2021/12/27 03:35:38;;;;;;;30.70;11.43;;;;;;;15.32;40.90;100098.34;5132056;27;20084;-67
2021/12/27 03:38:07;;;;;;;28.90;12.13;;;;;;;16.04;39.14;100103.22;5110977;28;20035;-67
2021/12/27 03:40:35;;;;;;;31.27;11.33;;;;;;;15.55;39.16;100098.28;5112936;28;20019;-67
2021/12/27 03:43:00;;;;;;;29.33;11.90;;;;;;;15.18;40.12;100106.81;5122536;28;20089;-67
2021/12/27 03:45:29;;;;;;;30.77;11.80;;;;;;;15.13;41.70;100103.56;5092879;28;20482;-67
2021/12/27 03:47:55;;;;;;;29.30;12.00;;;;;;;15.10;41.24;100105.38;5097757;28;20047;-67
2021/12/27 03:50:21;;;;;;;26.30;11.30;;;;;;;15.86;39.66;100104.88;5112247;28;20050;-67
2021/12/27 03:52:47;;;;;;;32.03;11.93;;;;;;;15.10;41.32;100099.25;5122989;28;20023;-67
2021/12/27 03:55:13;;;;;;;28.13;11.87;;;;;;;14.89;41.52;100103.59;5112828;28;20517;-67
2021/12/27 03:57:41;;;;;;;29.43;11.67;;;;;;;14.69;41.90;100110.50;5111834;28;20506;-67
2021/12/27 04:00:30;;;;;;;29.97;11.73;;;;;;;13.81;44.38;100104.94;5131442;28;20020;-67
2021/12/27 04:02:59;;;;;;;22.30;10.90;;;;;;;14.38;43.37;100103.75;5103494;28;20277;-67
2021/12/27 04:05:25;;;;;;;26.87;12.17;;;;;;;15.16;41.64;100095.53;5112868;28;20034;-68
2021/12/27 04:07:59;;;;;;;32.43;12.70;;;;;;;14.80;42.11;100090.81;5116908;27;20031;-67
2021/12/27 04:10:26;;;;;;;31.77;11.77;;;;;;;15.51;40.70;100082.66;5135755;27;20079;-68
2021/12/27 04:12:51;;;;;;;27.10;11.23;;;;;;;16.10;39.65;100081.88;5108417;27;20095;-67
2021/12/27 04:15:16;;;;;;;33.03;12.10;;;;;;;16.02;39.76;100076.09;5134940;27;20463;-67
2021/12/27 04:17:42;;;;;;;31.27;11.53;;;;;;;15.22;41.39;100076.81;5116951;27;20059;-67
2021/12/27 04:20:07;;;;;;;27.90;11.53;;;;;;;15.83;40.03;100078.66;5116508;27;20054;-67
2021/12/27 04:22:33;;;;;;;25.17;10.53;;;;;;;15.18;41.47;100075.25;5109654;28;20028;-67
2021/12/27 04:25:03;;;;;;;25.17;10.93;;;;;;;15.93;40.38;100073.84;5115082;27;20039;-67
2021/12/27 04:27:28;;;;;;;23.33;10.60;;;;;;;16.14;39.63;100071.16;5117001;27;20043;-67
2021/12/27 04:29:54;;;;;;;23.13;11.03;;;;;;;15.90;40.16;100068.72;5116243;27;20479;-67
2021/12/27 04:32:19;;;;;;;26.37;11.80;;;;;;;14.84;42.76;100066.09;5113169;27;20111;-67
2021/12/27 04:34:45;;;;;;;26.37;10.43;;;;;;;15.86;40.75;100060.09;5111286;27;20023;-67
2021/12/27 04:37:10;;;;;;;32.40;11.97;;;;;;;15.91;39.84;100049.34;5134633;27;20443;-67
2021/12/27 04:39:36;;;;;;;26.83;10.60;;;;;;;16.23;39.37;100054.94;5103439;28;20031;-67
2021/12/27 04:42:02;;;;;;;27.47;10.83;;;;;;;16.38;39.20;100048.94;5096304;28;20509;-67
2021/12/27 04:44:28;;;;;;;28.60;11.43;;;;;;;16.72;38.99;100050.00;5107414;27;20121;-67
2021/12/27 04:46:53;;;;;;;23.70;11.07;;;;;;;16.10;39.91;100050.22;5135219;27;20076;-68
2021/12/27 04:49:19;;;;;;;23.87;10.67;;;;;;;16.81;38.76;100043.41;5115339;27;20087;-67
2021/12/27 04:51:44;;;;;;;25.53;9.67;;;;;;;17.16;37.96;100034.72;5115544;27;20042;-67
2021/12/27 04:54:10;;;;;;;23.80;11.00;;;;;;;16.22;39.50;100058.50;5115839;27;20031;-67
2021/12/27 04:56:35;;;;;;;31.63;11.67;;;;;;;15.57;41.19;100061.34;5116079;27;20019;-68
2021/12/27 04:59:01;;;;;;;25.87;9.93;;;;;;;16.42;39.43;100060.22;5107639;27;20015;-67
2021/12/27 05:01:26;;;;;;;28.77;11.67;;;;;;;16.36;39.61;100053.47;5130899;27;20027;-67
2021/12/27 05:03:52;;;;;;;26.77;11.90;;;;;;;15.41;41.91;100059.38;5102187;27;20064;-68
2021/12/27 05:06:17;;;;;;;27.77;10.50;;;;;;;14.85;42.54;100046.75;5134324;27;20054;-67
2021/12/27 05:08:43;;;;;;;32.17;11.27;;;;;;;15.80;41.12;100041.94;5115217;27;20554;-67
2021/12/27 05:11:08;;;;;;;24.67;11.20;;;;;;;15.57;41.78;100042.91;5115271;27;20043;-67
2021/12/27 05:13:35;;;;;;;34.63;10.97;;;;;;;16.55;39.52;100034.13;5115954;27;20027;-66
2021/12/27 05:16:02;;;;;;;28.13;12.17;;;;;;;16.65;39.99;100030.13;5132639;27;20023;-68
2021/12/27 05:18:27;;;;;;;28.30;12.20;;;;;;;15.33;42.37;100031.63;5133388;27;20399;-67
2021/12/27 05:20:53;;;;;;;24.43;11.57;;;;;;;15.94;40.84;100028.13;5114825;27;20027;-67
2021/12/27 05:23:18;;;;;;;35.83;12.97;;;;;;;16.59;39.53;100025.13;5134066;27;20050;-67
2021/12/27 05:25:44;;;;;;;29.60;12.80;;;;;;;15.99;40.85;100031.41;5133457;27;20061;-67
2021/12/27 05:28:09;;;;;;;39.10;13.70;;;;;;;16.82;39.13;100023.19;5125301;27;20032;-67
2021/12/27 05:30:36;;;;;;;30.83;12.00;;;;;;;17.00;38.57;100024.94;5132406;27;20122;-68
2021/12/27 05:33:02;;;;;;;34.17;13.00;;;;;;;16.08;40.30;100030.97;5133267;27;20501;-67
2021/12/27 05:35:27;;;;;;;29.93;11.90;;;;;;;16.62;39.48;100009.16;5115940;27;20092;-67
2021/12/27 05:37:53;;;;;;;33.67;13.10;;;;;;;16.93;38.87;100005.91;5114404;27;20039;-67
2021/12/27 05:40:22;;;;;;;24.87;11.57;;;;;;;17.18;38.64;100003.81;5133231;27;20436;-68
2021/12/27 05:42:53;;;;;;;31.07;12.83;;;;;;;16.56;39.64;100014.72;5114130;27;20023;-67
2021/12/27 05:45:19;;;;;;;37.33;13.00;;;;;;;16.96;39.35;100004.91;5115520;27;20643;-67
2021/12/27 05:47:44;;;;;;;33.77;13.00;;;;;;;16.76;39.16;100005.84;5114351;27;20196;-67
2021/12/27 05:50:12;;;;;;;37.80;12.90;;;;;;;17.04;38.67;100005.38;5114731;27;20109;-67
2021/12/27 05:52:38;;;;;;;33.40;13.33;;;;;;;16.85;39.10;100012.47;5133687;27;20035;-68
2021/12/27 05:55:05;;;;;;;30.10;11.90;;;;;;;16.50;39.44;100009.72;5114539;27;20023;-68
2021/12/27 05:57:31;;;;;;;35.33;11.47;;;;;;;17.08;38.28;100019.28;5132204;27;20074;-67
2021/12/27 05:59:57;;;;;;;34.27;12.37;;;;;;;17.03;38.86;100018.66;5113295;27;20027;-67
2021/12/27 06:02:22;;;;;;;36.47;12.87;;;;;;;17.25;38.84;100015.78;5133120;27;20027;-67
2021/12/27 06:04:48;;;;;;;37.43;12.73;;;;;;;17.15;39.21;100017.19;5133415;27;20394;-67
2021/12/27 06:07:13;;;;;;;36.27;13.03;;;;;;;17.25;38.79;100019.25;5132793;27;20027;-67
2021/12/27 06:09:38;;;;;;;34.07;12.70;;;;;;;16.59;40.04;100017.22;5117232;27;20035;-68
2021/12/27 06:12:05;;;;;;;36.03;13.23;;;;;;;16.97;39.41;100009.25;5114478;27;20116;-67
2021/12/27 06:14:30;;;;;;;28.07;12.87;;;;;;;16.84;39.98;100018.66;5113888;27;20046;-67
2021/12/27 06:16:56;;;;;;;35.57;13.53;;;;;;;16.99;39.36;100012.66;5122180;27;20032;-67
2021/12/27 06:19:21;;;;;;;36.23;13.67;;;;;;;17.41;38.57;100006.13;5113013;27;20122;-67
2021/12/27 06:21:47;;;;;;;43.10;13.23;;;;;;;18.10;37.63;100012.22;5132424;27;20034;-67
2021/12/27 06:24:13;;;;;;;33.80;12.63;;;;;;;17.43;38.87;100006.94;5113866;27;20407;-67
2021/12/27 06:26:38;;;;;;;29.10;12.50;;;;;;;17.26;38.92;100005.13;5118159;27;20031;-67
2021/12/27 06:29:03;;;;;;;36.20;13.93;;;;;;;16.92;39.90;100000.69;5101697;28;20024;-67
2021/12/27 06:31:29;;;;;;;39.57;14.37;;;;;;;18.02;38.15;100008.28;5094296;28;20024;-67
2021/12/27 06:33:54;;;;;;;42.63;14.40;;;;;;;17.22;39.27;100016.78;5125820;27;20027;-67
2021/12/27 06:36:19;;;;;;;35.13;13.30;;;;;;;16.73;39.94;100001.59;5113149;27;20365;-68
2021/12/27 06:38:45;;;;;;;39.20;12.60;;;;;;;17.69;38.73;100007.31;5113207;27;20110;-67
2021/12/27 06:41:10;;;;;;;38.23;12.40;;;;;;;17.73;38.30;100014.16;5132323;27;20039;-67
2021/12/27 06:43:35;;;;;;;32.50;12.83;;;;;;;17.67;38.71;100019.78;5113407;27;20042;-67
2021/12/27 06:46:01;;;;;;;31.63;12.90;;;;;;;16.93;40.31;100012.97;5125217;27;20092;-67
2021/12/27 06:48:27;;;;;;;31.10;12.43;;;;;;;16.58;41.05;100012.84;5123368;27;20023;-67
2021/12/27 06:50:53;;;;;;;37.97;12.20;;;;;;;17.74;39.05;100010.59;5132266;27;20031;-67
2021/12/27 06:53:18;;;;;;;34.37;13.43;;;;;;;17.65;39.02;100016.34;5131319;27;20063;-67
2021/12/27 06:55:45;;;;;;;32.63;12.80;;;;;;;17.89;38.34;100008.91;5112215;27;20397;-67
2021/12/27 06:58:11;;;;;;;35.23;14.00;;;;;;;17.96;38.37;100014.78;5100980;27;20031;-67
2021/12/27 07:00:37;;;;;;;36.60;14.67;;;;;;;17.73;38.53;100019.44;5114077;27;20023;-67
2021/12/27 07:03:03;;;;;;;42.53;13.63;;;;;;;18.08;38.52;100024.69;5112523;27;20080;-68
2021/12/27 07:05:28;;;;;;;34.07;12.90;;;;;;;17.76;39.22;100019.31;5113647;27;20504;-67
2021/12/27 07:07:53;;;;;;;35.70;12.70;;;;;;;17.78;39.58;100022.72;5117193;27;20063;-67
2021/12/27 07:10:19;;;;;;;41.87;11.90;;;;;;;17.84;39.00;100010.09;5131645;27;20023;-67
2021/12/27 07:12:45;;;;;;;29.13;11.53;;;;;;;16.24;42.36;100010.03;5131347;27;20106;-68
2021/12/27 07:15:11;;;;;;;37.13;13.43;;;;;;;16.21;42.66;99999.66;5113052;27;20045;-67
2021/12/27 07:17:36;;;;;;;44.67;12.47;;;;;;;17.90;39.07;99989.50;5112451;27;20391;-68
2021/12/27 07:20:03;;;;;;;43.97;13.50;;;;;;;18.26;38.15;99995.53;5112552;28;20099;-67
2021/12/27 07:22:28;;;;;;;28.80;12.10;;;;;;;18.24;38.18;100000.03;5132205;27;20478;-68
2021/12/27 07:24:54;;;;;;;39.33;12.47;;;;;;;17.86;38.84;99992.34;5130471;27;20034;-67
2021/12/27 07:27:19;;;;;;;37.33;11.33;;;;;;;17.17;40.00;99999.47;5113487;27;20031;-67
2021/12/27 07:29:44;;;;;;;38.33;11.63;;;;;;;18.08;38.94;99986.78;5131482;27;20034;-67
2021/12/27 07:32:10;;;;;;;38.40;13.57;;;;;;;17.45;39.76;99998.91;5112624;28;20455;-67
2021/12/27 07:34:35;;;;;;;31.83;12.43;;;;;;;18.52;37.75;99990.56;5112277;27;20033;-67
2021/12/27 07:37:00;;;;;;;38.33;12.67;;;;;;;18.08;38.63;99986.78;5131231;27;20387;-67
2021/12/27 07:39:26;;;;;;;37.10;12.20;;;;;;;17.79;39.45;99992.72;5111995;28;20368;-67
2021/12/27 07:41:52;;;;;;;41.13;11.73;;;;;;;18.12;38.59;99983.91;5131911;27;20441;-68
2021/12/27 07:44:18;;;;;;;38.93;12.70;;;;;;;18.41;38.32;99989.38;5112542;28;20027;-67
2021/12/27 07:46:45;;;;;;;42.27;12.60;;;;;;;18.37;37.62;99993.13;5112258;28;20038;-67
2021/12/27 07:49:12;;;;;;;37.87;11.77;;;;;;;18.33;38.95;99996.88;5106317;28;20467;-67
2021/12/27 07:51:38;;;;;;;39.07;12.40;;;;;;;18.17;38.93;100001.31;5093161;28;20026;-67
2021/12/27 07:54:05;;;;;;;31.37;11.93;;;;;;;18.35;38.73;100005.56;5104013;28;20027;-68
2021/12/27 07:56:30;;;;;;;37.40;12.20;;;;;;;18.30;38.48;99999.72;5105060;28;20026;-68
2021/12/27 07:58:56;;;;;;;32.83;12.67;;;;;;;17.43;39.58;99996.34;5112388;28;20023;-68
2021/12/27 08:01:22;;;;;;;34.93;12.23;;;;;;;18.23;38.42;99985.09;5130873;28;20031;-67
2021/12/27 08:03:47;;;;;;;29.37;11.13;;;;;;;18.00;38.54;99989.00;5131119;28;20045;-67
2021/12/27 08:06:13;;;;;;;29.83;11.93;;;;;;;17.82;39.68;99999.63;5118517;28;20050;-67
2021/12/27 08:08:38;;;;;;;34.03;10.77;;;;;;;17.60;40.45;99986.69;5117232;28;20031;-67
2021/12/27 08:11:04;;;;;;;30.77;11.87;;;;;;;17.36;39.99;99989.66;5128827;28;20375;-68
2021/12/27 08:13:29;;;;;;;25.57;11.77;;;;;;;17.85;39.79;99980.09;5092294;28;20032;-67
2021/12/27 08:15:54;;;;;;;32.97;11.97;;;;;;;17.01;41.90;99988.81;5114633;28;20443;-67
2021/12/27 08:18:20;;;;;;;32.30;12.67;;;;;;;18.12;39.03;99989.19;5131007;28;20057;-67
2021/12/27 08:20:46;;;;;;;32.97;12.90;;;;;;;17.74;39.90;100000.03;5112153;28;20023;-68
2021/12/27 08:23:11;;;;;;;33.07;13.37;;;;;;;18.13;39.53;99988.28;5130656;28;20102;-67
2021/12/27 08:25:37;;;;;;;50.47;13.53;;;;;;;18.29;38.43;99984.78;5111256;28;20172;-67
2021/12/27 08:28:03;;;;;;;27.00;11.53;;;;;;;17.98;39.23;99981.16;5118168;28;20098;-67
2021/12/27 08:30:29;;;;;;;30.27;11.20;;;;;;;18.30;38.53;99967.97;5130805;28;20047;-67
2021/12/27 08:32:56;;;;;;;27.00;10.83;;;;;;;17.63;39.91;99970.69;5112438;28;20025;-67
2021/12/27 08:35:22;;;;;;;29.73;12.30;;;;;;;17.69;39.45;99970.34;5104355;28;20264;-67
2021/12/27 08:37:47;;;;;;;27.13;10.77;;;;;;;17.70;39.32;99966.75;5097411;28;20077;-67
2021/12/27 08:40:13;;;;;;;31.57;11.13;;;;;;;17.83;38.78;99966.09;5112359;28;20108;-67
2021/12/27 08:42:40;;;;;;;29.90;11.80;;;;;;;17.91;39.32;99969.19;5130722;28;20039;-68
2021/12/27 08:45:06;;;;;;;31.30;13.00;;;;;;;17.78;39.90;99972.50;5106274;28;20039;-67
2021/12/27 08:47:32;;;;;;;28.93;12.70;;;;;;;17.93;38.86;99962.06;5107106;28;20039;-67
2021/12/27 08:49:59;;;;;;;35.70;13.00;;;;;;;16.59;42.35;99964.44;5128681;28;20099;-67
2021/12/27 08:52:25;;;;;;;36.83;12.83;;;;;;;17.29;40.68;99972.44;5128669;28;20028;-67
2021/12/27 08:54:50;;;;;;;33.80;12.20;;;;;;;17.67;40.28;99971.34;5119238;27;20081;-67
2021/12/27 08:57:16;;;;;;;28.50;12.10;;;;;;;17.56;40.46;99956.09;5120258;27;20035;-68
2021/12/27 08:59:41;;;;;;;35.13;13.73;;;;;;;17.70;39.60;99955.34;5123096;27;20103;-67
2021/12/27 09:02:06;;;;;;;34.83;14.00;;;;;;;17.60;40.12;99945.25;5112982;27;20541;-68
2021/12/27 09:04:32;;;;;;;35.20;13.23;;;;;;;18.54;38.07;99938.41;5113356;27;20031;-67
2021/12/27 09:06:58;;;;;;;36.73;12.23;;;;;;;18.40;38.51;99923.34;5112933;27;20027;-67
2021/12/27 09:09:24;;;;;;;35.63;13.50;;;;;;;18.19;38.95;99930.66;5116070;27;20027;-67
2021/12/27 09:11:50;;;;;;;34.97;13.53;;;;;;;17.76;40.34;99926.81;5114918;27;20658;-67
2021/12/27 09:14:15;;;;;;;30.37;13.40;;;;;;;18.35;38.68;99930.66;5116008;27;20482;-67
2021/12/27 09:16:42;;;;;;;30.73;12.40;;;;;;;17.84;40.10;99942.22;5115310;27;20391;-67
2021/12/27 09:19:08;;;;;;;39.70;14.70;;;;;;;17.74;40.93;99955.09;5124786;27;20051;-68
2021/12/27 09:21:33;;;;;;;33.97;13.33;;;;;;;17.15;41.57;99967.88;5095568;28;20126;-67
2021/12/27 09:23:59;;;;;;;41.60;12.97;;;;;;;17.39;41.76;99972.81;5109766;27;20371;-67
2021/12/27 09:26:24;;;;;;;41.60;13.03;;;;;;;16.98;42.21;99967.84;5113191;27;20035;-67
2021/12/27 09:28:49;;;;;;;36.33;13.13;;;;;;;16.76;42.65;99980.31;5133625;27;20084;-67
2021/12/27 09:31:15;;;;;;;35.30;13.07;;;;;;;17.18;42.21;99985.34;5133168;27;20027;-67
2021/12/27 09:33:41;;;;;;;42.67;13.00;;;;;;;17.83;40.63;99984.59;5110925;27;20486;-67
2021/12/27 09:36:07;;;;;;;34.50;12.27;;;;;;;17.44;41.25;99987.47;5111918;27;20047;-67
2021/12/27 09:38:32;;;;;;;29.80;11.40;;;;;;;17.91;40.61;99979.75;5126708;27;20058;-68
2021/12/27 09:40:58;;;;;;;40.90;14.00;;;;;;;18.31;39.88;99967.88;5133233;27;20031;-67
2021/12/27 09:43:24;;;;;;;46.33;12.50;;;;;;;18.01;40.16;99953.69;5113001;27;20486;-67
2021/12/27 09:45:50;;;;;;;49.10;13.23;;;;;;;18.41;39.31;99957.63;5132221;27;20075;-68
2021/12/27 09:48:15;;;;;;;43.33;13.40;;;;;;;18.45;39.45;99943.28;5112205;27;20031;-68
2021/12/27 09:50:51;;;;;;;31.93;13.00;;;;;;;18.63;39.30;99951.13;5114971;27;20165;-68
2021/12/27 09:53:17;;;;;;;37.77;12.40;;;;;;;18.22;41.15;99955.16;5112387;27;20499;-67
2021/12/27 09:55:42;;;;;;;43.27;13.00;;;;;;;18.38;39.65;99936.66;5115027;27;20057;-68
2021/12/27 09:58:08;;;;;;;38.17;12.53;;;;;;;18.31;40.51;99935.28;5110392;28;20429;-67
2021/12/27 10:00:34;;;;;;;33.47;12.03;;;;;;;18.28;40.43;99909.00;5103837;27;20509;-67
2021/12/27 10:03:00;;;;;;;35.27;13.70;;;;;;;19.04;38.77;99921.41;5114545;27;20367;-67
2021/12/27 10:05:29;;;;;;;45.17;14.03;;;;;;;18.91;39.10;99912.47;5095569;27;20070;-68
2021/12/27 10:07:55;;;;;;;31.77;11.87;;;;;;;18.58;39.28;99910.84;5101459;28;20027;-68
2021/12/27 10:10:20;;;;;;;34.40;13.77;;;;;;;18.09;41.04;99910.06;5110928;27;20011;-68
2021/12/27 10:12:46;;;;;;;36.10;12.60;;;;;;;18.57;40.24;99914.41;5117315;27;20506;-68
2021/12/27 10:15:16;;;;;;;29.87;10.60;;;;;;;18.53;39.90;99908.44;5101311;28;20038;-67
2021/12/27 10:17:42;;;;;;;36.70;12.13;;;;;;;19.22;38.44;99915.91;5113386;27;20042;-67
2021/12/27 10:20:15;;;;;;;39.83;13.30;;;;;;;17.69;41.58;99917.47;5108254;27;20028;-68
2021/12/27 10:22:47;;;;;;;37.53;12.80;;;;;;;18.14;40.23;99913.28;5132225;27;20128;-68
2021/12/27 10:25:15;;;;;;;28.35;12.18;;;;;;;18.90;39.42;99921.34;5094680;28;20168;-68
2021/12/27 10:27:41;;;;;;;36.40;12.10;;;;;;;17.80;40.98;99917.78;5094061;28;20042;-67
2021/12/27 10:30:19;;;;;;;37.13;12.70;;;;;;;18.56;40.63;99915.34;5129565;27;20445;-67
2021/12/27 10:33:02;;;;;;;38.67;12.93;;;;;;;18.16;40.43;99922.91;5128573;27;20399;-67
2021/12/27 10:35:38;;;;;;;;;;;;;;;17.38;42.20;99921.78;5114194;27;20075;-67
2021/12/27 10:38:26;;;;;;;33.93;12.03;;;;;;;17.43;43.54;99922.41;5112738;27;20415;-68
2021/12/27 10:41:00;;;;;;;35.53;13.03;;;;;;;17.82;42.47;99912.41;5131211;27;20065;-67
2021/12/27 10:43:45;;;;;;;33.40;11.43;;;;;;;18.38;42.11;99902.25;5113941;27;20118;-67
2021/12/27 10:46:16;;;;;;;32.37;11.77;;;;;;;19.14;40.25;99909.28;5131912;27;20061;-68
2021/12/27 10:48:59;;;;;;;36.47;11.23;;;;;;;19.15;40.00;99911.00;5125331;27;20021;-68
2021/12/27 10:51:26;;;;;;;35.08;12.27;;;;;;;18.69;40.72;99905.75;5113012;27;20038;-67
2021/12/27 10:53:57;;;;;;;37.87;12.50;;;;;;;18.30;43.10;99899.19;5112400;27;20034;-68
2021/12/27 10:56:25;;;;;;;40.93;13.10;;;;;;;18.89;41.13;99909.03;5132027;27;20137;-67
2021/12/27 10:58:53;;;;;;;37.47;11.30;;;;;;;18.85;41.58;99903.06;5103049;27;20026;-68
2021/12/27 11:01:21;;;;;;;40.47;11.87;;;;;;;19.00;40.98;99901.34;5124892;27;20039;-67
2021/12/27 11:03:49;;;;;;;36.00;11.33;;;;;;;18.69;42.52;99911.06;5107040;27;20027;-67
2021/12/27 11:06:25;;;;;;;29.70;10.47;;;;;;;19.01;41.13;99905.66;5093870;28;20020;-68
2021/12/27 11:08:52;;;;;;;31.80;10.10;;;;;;;18.55;42.46;99889.84;5119400;27;20023;-67
2021/12/27 11:11:20;;;;;;;31.17;10.90;;;;;;;18.90;41.43;99889.56;5100706;28;20475;-68